sensor_id;sensor_type;location;lat;lon;timestamp;pressure;altitude;pressure_sealevel;temperature;humidity
80139;BME280;69467;59.842;17.604;2023-12-22T00:01:29;96275.69;;;0.14;100.00
80139;BME280;69467;59.842;17.604;2023-12-22T00:03:54;96266.00;;;0.13;100.00
80139;BME280;69467;59.842;17.604;2023-12-22T00:06:19;96274.59;;;0.15;100.00
80139;BME280;69467;59.842;17.604;2023-12-22T00:08:45;96273.81;;;0.15;100.00
80139;BME280;69467;59.842;17.604;2023-12-22T00:11:10;96279.47;;;0.13;100.00
80139;BME280;69467;59.842;17.604;2023-12-22T00:13:35;96273.31;;;0.13;100.00
80139;BME280;69467;59.842;17.604;2023-12-22T00:16:01;96265.53;;;0.11;100.00
80139;BME280;69467;59.842;17.604;2023-12-22T00:18:26;96282.47;;;0.12;100.00
80139;BME280;69467;59.842;17.604;2023-12-22T00:20:52;96281.19;;;0.09;100.00
80139;BME280;69467;59.842;17.604;2023-12-22T00:23:17;96274.19;;;0.08;100.00
80139;BME280;69467;59.842;17.604;2023-12-22T00:25:43;96272.63;;;0.07;100.00
80139;BME280;69467;59.842;17.604;2023-12-22T00:28:08;96285.28;;;0.07;100.00
80139;BME280;69467;59.842;17.604;2023-12-22T00:30:33;96273.72;;;0.06;100.00
80139;BME280;69467;59.842;17.604;2023-12-22T00:32:59;96283.69;;;0.06;100.00
80139;BME280;69467;59.842;17.604;2023-12-22T00:35:24;96274.31;;;0.03;100.00
80139;BME280;69467;59.842;17.604;2023-12-22T00:37:49;96275.41;;;0.02;100.00
80139;BME280;69467;59.842;17.604;2023-12-22T00:40:15;96275.72;;;0.01;100.00
80139;BME280;69467;59.842;17.604;2023-12-22T00:42:40;96283.03;;;0.00;100.00
80139;BME280;69467;59.842;17.604;2023-12-22T00:45:06;96276.81;;;-0.01;100.00
80139;BME280;69467;59.842;17.604;2023-12-22T00:47:31;96280.91;;;-0.03;100.00
80139;BME280;69467;59.842;17.604;2023-12-22T00:49:56;96281.22;;;-0.05;100.00
80139;BME280;69467;59.842;17.604;2023-12-22T00:52:22;96278.53;;;-0.05;100.00
80139;BME280;69467;59.842;17.604;2023-12-22T00:54:48;96284.69;;;-0.04;100.00
80139;BME280;69467;59.842;17.604;2023-12-22T00:57:13;96276.13;;;-0.06;100.00
80139;BME280;69467;59.842;17.604;2023-12-22T00:59:39;96281.03;;;-0.08;100.00
80139;BME280;69467;59.842;17.604;2023-12-22T01:02:10;96286.41;;;-0.08;100.00
80139;BME280;69467;59.842;17.604;2023-12-22T01:04:35;96277.25;;;-0.07;100.00
80139;BME280;69467;59.842;17.604;2023-12-22T01:07:01;96276.13;;;-0.06;100.00
80139;BME280;69467;59.842;17.604;2023-12-22T01:09:26;96298.75;;;-0.07;100.00
80139;BME280;69467;59.842;17.604;2023-12-22T01:11:51;96286.88;;;-0.06;100.00
80139;BME280;69467;59.842;17.604;2023-12-22T01:14:17;96296.06;;;-0.07;100.00
80139;BME280;69467;59.842;17.604;2023-12-22T01:16:42;96296.06;;;-0.07;100.00
80139;BME280;69467;59.842;17.604;2023-12-22T01:19:07;96308.41;;;-0.06;100.00
80139;BME280;69467;59.842;17.604;2023-12-22T01:21:33;96304.63;;;-0.05;100.00
80139;BME280;69467;59.842;17.604;2023-12-22T01:23:58;96307.13;;;-0.09;100.00
80139;BME280;69467;59.842;17.604;2023-12-22T01:26:24;96305.25;;;-0.08;100.00
80139;BME280;69467;59.842;17.604;2023-12-22T01:28:49;96306.31;;;-0.09;100.00
80139;BME280;69467;59.842;17.604;2023-12-22T01:31:15;96309.59;;;-0.12;100.00
80139;BME280;69467;59.842;17.604;2023-12-22T01:33:40;96306.75;;;-0.16;100.00
80139;BME280;69467;59.842;17.604;2023-12-22T01:36:05;96307.22;;;-0.14;100.00
80139;BME280;69467;59.842;17.604;2023-12-22T01:38:31;96322.56;;;-0.14;100.00
80139;BME280;69467;59.842;17.604;2023-12-22T01:40:56;96304.84;;;-0.15;100.00
80139;BME280;69467;59.842;17.604;2023-12-22T01:43:21;96310.22;;;-0.15;100.00
80139;BME280;69467;59.842;17.604;2023-12-22T01:45:48;96309.44;;;-0.16;100.00
80139;BME280;69467;59.842;17.604;2023-12-22T01:48:14;96310.22;;;-0.15;100.00
80139;BME280;69467;59.842;17.604;2023-12-22T01:50:40;96318.28;;;-0.15;100.00
80139;BME280;69467;59.842;17.604;2023-12-22T01:53:05;96318.59;;;-0.17;100.00
80139;BME280;69467;59.842;17.604;2023-12-22T01:55:31;96321.28;;;-0.17;100.00
80139;BME280;69467;59.842;17.604;2023-12-22T01:57:56;96319.38;;;-0.17;100.00
80139;BME280;69467;59.842;17.604;2023-12-22T02:00:21;96330.44;;;-0.18;100.00
80139;BME280;69467;59.842;17.604;2023-12-22T02:02:48;96326.16;;;-0.19;100.00
80139;BME280;69467;59.842;17.604;2023-12-22T02:05:13;96334.22;;;-0.19;100.00
80139;BME280;69467;59.842;17.604;2023-12-22T02:07:41;96329.16;;;-0.21;100.00
80139;BME280;69467;59.842;17.604;2023-12-22T02:10:10;96330.25;;;-0.22;100.00
80139;BME280;69467;59.842;17.604;2023-12-22T02:12:36;96331.03;;;-0.21;100.00
80139;BME280;69467;59.842;17.604;2023-12-22T02:15:02;96329.28;;;-0.26;100.00
80139;BME280;69467;59.842;17.604;2023-12-22T02:20:03;96323.88;;;-0.26;100.00
80139;BME280;69467;59.842;17.604;2023-12-22T02:22:29;96327.66;;;-0.27;100.00
80139;BME280;69467;59.842;17.604;2023-12-22T02:24:54;96316.91;;;-0.27;100.00
80139;BME280;69467;59.842;17.604;2023-12-22T02:27:39;96326.38;;;-0.29;100.00
80139;BME280;69467;59.842;17.604;2023-12-22T02:30:09;96330.66;;;-0.28;100.00
80139;BME280;69467;59.842;17.604;2023-12-22T02:32:39;96323.38;;;-0.28;100.00
80139;BME280;69467;59.842;17.604;2023-12-22T02:35:09;96339.22;;;-0.26;100.00
80139;BME280;69467;59.842;17.604;2023-12-22T02:37:36;96343.81;;;-0.27;100.00
80139;BME280;69467;59.842;17.604;2023-12-22T02:40:04;96336.81;;;-0.28;100.00
80139;BME280;69467;59.842;17.604;2023-12-22T02:42:29;96333.34;;;-0.28;100.00
80139;BME280;69467;59.842;17.604;2023-12-22T02:44:59;96339.81;;;-0.29;100.00
80139;BME280;69467;59.842;17.604;2023-12-22T02:47:25;96343.91;;;-0.32;100.00
80139;BME280;69467;59.842;17.604;2023-12-22T02:49:53;96343.09;;;-0.33;100.00
80139;BME280;69467;59.842;17.604;2023-12-22T02:52:18;96334.25;;;-0.33;100.00
80139;BME280;69467;59.842;17.604;2023-12-22T02:54:44;96352.25;;;-0.34;100.00
80139;BME280;69467;59.842;17.604;2023-12-22T02:57:09;96335.34;;;-0.34;100.00
80139;BME280;69467;59.842;17.604;2023-12-22T02:59:34;96336.94;;;-0.33;100.00
80139;BME280;69467;59.842;17.604;2023-12-22T03:02:00;96340.72;;;-0.34;100.00
80139;BME280;69467;59.842;17.604;2023-12-22T03:04:25;96356.84;;;-0.34;100.00
80139;BME280;69467;59.842;17.604;2023-12-22T03:06:50;96355.25;;;-0.35;100.00
80139;BME280;69467;59.842;17.604;2023-12-22T03:09:15;96350.47;;;-0.38;100.00
80139;BME280;69467;59.842;17.604;2023-12-22T03:11:41;96351.06;;;-0.41;100.00
80139;BME280;69467;59.842;17.604;2023-12-22T03:14:06;96344.28;;;-0.39;100.00
80139;BME280;69467;59.842;17.604;2023-12-22T03:16:32;96343.50;;;-0.39;100.00
80139;BME280;69467;59.842;17.604;2023-12-22T03:18:57;96346.47;;;-0.41;100.00
80139;BME280;69467;59.842;17.604;2023-12-22T03:21:22;96338.41;;;-0.41;100.00
80139;BME280;69467;59.842;17.604;2023-12-22T03:23:47;96333.03;;;-0.41;100.00
80139;BME280;69467;59.842;17.604;2023-12-22T03:26:13;96355.94;;;-0.43;100.00
80139;BME280;69467;59.842;17.604;2023-12-22T03:28:38;96355.94;;;-0.43;100.00
80139;BME280;69467;59.842;17.604;2023-12-22T03:31:04;96349.78;;;-0.44;100.00
80139;BME280;69467;59.842;17.604;2023-12-22T03:33:29;96361.31;;;-0.43;100.00
80139;BME280;69467;59.842;17.604;2023-12-22T03:35:54;96360.53;;;-0.44;100.00
80139;BME280;69467;59.842;17.604;2023-12-22T03:38:20;96357.84;;;-0.44;100.00
80139;BME280;69467;59.842;17.604;2023-12-22T03:40:45;96375.56;;;-0.43;100.00
80139;BME280;69467;59.842;17.604;2023-12-22T03:43:10;96372.38;;;-0.45;100.00
80139;BME280;69467;59.842;17.604;2023-12-22T03:45:36;96370.50;;;-0.44;100.00
80139;BME280;69467;59.842;17.604;2023-12-22T03:48:01;96368.88;;;-0.45;100.00
80139;BME280;69467;59.842;17.604;2023-12-22T03:50:26;96371.56;;;-0.45;100.00
80139;BME280;69467;59.842;17.604;2023-12-22T03:52:52;96378.25;;;-0.43;100.00
80139;BME280;69467;59.842;17.604;2023-12-22T03:55:17;96373.19;;;-0.44;100.00
80139;BME280;69467;59.842;17.604;2023-12-22T03:57:43;96378.56;;;-0.44;100.00
80139;BME280;69467;59.842;17.604;2023-12-22T04:00:08;96380.41;;;-0.45;100.00
80139;BME280;69467;59.842;17.604;2023-12-22T04:02:33;96390.88;;;-0.43;100.00
80139;BME280;69467;59.842;17.604;2023-12-22T04:04:59;96385.00;;;-0.45;100.00
80139;BME280;69467;59.842;17.604;2023-12-22T04:07:24;96383.94;;;-0.44;100.00
80139;BME280;69467;59.842;17.604;2023-12-22T04:09:49;96397.38;;;-0.44;100.00
80139;BME280;69467;59.842;17.604;2023-12-22T04:12:15;96394.69;;;-0.44;100.00
80139;BME280;69467;59.842;17.604;2023-12-22T04:14:40;96394.69;;;-0.44;100.00
80139;BME280;69467;59.842;17.604;2023-12-22T04:17:05;96394.16;;;-0.46;100.00
80139;BME280;69467;59.842;17.604;2023-12-22T04:19:31;96397.63;;;-0.46;100.00
80139;BME280;69467;59.842;17.604;2023-12-22T04:21:56;96406.50;;;-0.45;100.00
80139;BME280;69467;59.842;17.604;2023-12-22T04:24:22;96409.22;;;-0.45;100.00
80139;BME280;69467;59.842;17.604;2023-12-22T04:26:47;96418.06;;;-0.45;100.00
80139;BME280;69467;59.842;17.604;2023-12-22T04:29:13;96416.19;;;-0.44;100.00
80139;BME280;69467;59.842;17.604;2023-12-22T04:31:39;96421.56;;;-0.44;100.00
80139;BME280;69467;59.842;17.604;2023-12-22T04:34:04;96421.56;;;-0.44;100.00
80139;BME280;69467;59.842;17.604;2023-12-22T04:36:29;96421.56;;;-0.44;100.00
80139;BME280;69467;59.842;17.604;2023-12-22T04:38:55;96418.34;;;-0.46;100.00
80139;BME280;69467;59.842;17.604;2023-12-22T04:41:21;96425.81;;;-0.43;100.00
80139;BME280;69467;59.842;17.604;2023-12-22T04:43:46;96423.13;;;-0.43;100.00
80139;BME280;69467;59.842;17.604;2023-12-22T04:46:11;96429.31;;;-0.43;100.00
80139;BME280;69467;59.842;17.604;2023-12-22T04:48:37;96419.94;;;-0.45;100.00
80139;BME280;69467;59.842;17.604;2023-12-22T04:51:02;96424.25;;;-0.44;100.00
80139;BME280;69467;59.842;17.604;2023-12-22T04:53:27;96422.91;;;-0.47;100.00
80139;BME280;69467;59.842;17.604;2023-12-22T04:55:53;96422.91;;;-0.47;100.00
80139;BME280;69467;59.842;17.604;2023-12-22T04:58:18;96431.78;;;-0.46;100.00
80139;BME280;69467;59.842;17.604;2023-12-22T05:00:43;96432.09;;;-0.48;100.00
80139;BME280;69467;59.842;17.604;2023-12-22T05:03:09;96439.03;;;-0.47;100.00
80139;BME280;69467;59.842;17.604;2023-12-22T05:05:34;96442.53;;;-0.46;100.00
80139;BME280;69467;59.842;17.604;2023-12-22T05:07:59;96446.03;;;-0.46;100.00
80139;BME280;69467;59.842;17.604;2023-12-22T05:10:24;96455.97;;;-0.46;100.00
80139;BME280;69467;59.842;17.604;2023-12-22T05:12:50;96450.59;;;-0.46;100.00
80139;BME280;69467;59.842;17.604;2023-12-22T05:15:15;96462.13;;;-0.46;100.00
80139;BME280;69467;59.842;17.604;2023-12-22T05:17:40;96455.97;;;-0.46;100.00
80139;BME280;69467;59.842;17.604;2023-12-22T05:20:06;96462.97;;;-0.45;100.00
80139;BME280;69467;59.842;17.604;2023-12-22T05:22:31;96471.03;;;-0.45;100.00
80139;BME280;69467;59.842;17.604;2023-12-22T05:24:57;96469.94;;;-0.44;100.00
80139;BME280;69467;59.842;17.604;2023-12-22T05:27:25;96471.81;;;-0.45;100.00
80139;BME280;69467;59.842;17.604;2023-12-22T05:29:50;96477.47;;;-0.46;100.00
80139;BME280;69467;59.842;17.604;2023-12-22T05:32:15;96479.09;;;-0.45;100.00
80139;BME280;69467;59.842;17.604;2023-12-22T05:34:41;96484.47;;;-0.45;100.00
80139;BME280;69467;59.842;17.604;2023-12-22T05:37:06;96469.13;;;-0.45;100.00
80139;BME280;69467;59.842;17.604;2023-12-22T05:39:31;96479.88;;;-0.45;100.00
80139;BME280;69467;59.842;17.604;2023-12-22T05:41:57;96485.25;;;-0.45;100.00
80139;BME280;69467;59.842;17.604;2023-12-22T05:44:22;96491.44;;;-0.44;100.00
80139;BME280;69467;59.842;17.604;2023-12-22T05:46:49;96497.59;;;-0.44;100.00
80139;BME280;69467;59.842;17.604;2023-12-22T05:49:15;96494.59;;;-0.42;100.00
80139;BME280;69467;59.842;17.604;2023-12-22T05:51:41;96493.81;;;-0.43;100.00
80139;BME280;69467;59.842;17.604;2023-12-22T05:54:09;96498.09;;;-0.42;100.00
80139;BME280;69467;59.842;17.604;2023-12-22T05:56:35;96499.97;;;-0.42;100.00
80139;BME280;69467;59.842;17.604;2023-12-22T05:59:01;96512.63;;;-0.43;100.00
80139;BME280;69467;59.842;17.604;2023-12-22T06:01:26;96515.31;;;-0.43;100.00
80139;BME280;69467;59.842;17.604;2023-12-22T06:03:52;96514.22;;;-0.42;100.00
80139;BME280;69467;59.842;17.604;2023-12-22T06:06:18;96513.13;;;-0.41;100.00
80139;BME280;69467;59.842;17.604;2023-12-22T06:08:43;96523.09;;;-0.41;100.00
80139;BME280;69467;59.842;17.604;2023-12-22T06:11:08;96521.47;;;-0.42;100.00
80139;BME280;69467;59.842;17.604;2023-12-22T06:13:34;96525.00;;;-0.42;100.00
80139;BME280;69467;59.842;17.604;2023-12-22T06:16:01;96526.84;;;-0.42;100.00
80139;BME280;69467;59.842;17.604;2023-12-22T06:18:26;96544.59;;;-0.41;100.00
80139;BME280;69467;59.842;17.604;2023-12-22T06:20:51;96542.69;;;-0.41;100.00
80139;BME280;69467;59.842;17.604;2023-12-22T06:23:17;96533.84;;;-0.41;100.00
80139;BME280;69467;59.842;17.604;2023-12-22T06:25:42;96531.16;;;-0.41;100.00
80139;BME280;69467;59.842;17.604;2023-12-22T06:28:07;96536.00;;;-0.43;100.00
80139;BME280;69467;59.842;17.604;2023-12-22T06:30:33;96549.97;;;-0.41;100.00
80139;BME280;69467;59.842;17.604;2023-12-22T06:32:58;96539.50;;;-0.43;100.00
80139;BME280;69467;59.842;17.604;2023-12-22T06:35:23;96548.06;;;-0.41;100.00
80139;BME280;69467;59.842;17.604;2023-12-22T06:37:51;96553.16;;;-0.39;100.00
80139;BME280;69467;59.842;17.604;2023-12-22T06:40:17;96553.16;;;-0.39;100.00
80139;BME280;69467;59.842;17.604;2023-12-22T06:42:42;96556.94;;;-0.40;100.00
80139;BME280;69467;59.842;17.604;2023-12-22T06:45:08;96573.06;;;-0.40;100.00
80139;BME280;69467;59.842;17.604;2023-12-22T06:47:35;96570.91;;;-0.38;100.00
80139;BME280;69467;59.842;17.604;2023-12-22T06:50:01;96573.06;;;-0.40;100.00
80139;BME280;69467;59.842;17.604;2023-12-22T06:52:26;96575.16;;;-0.37;100.00
80139;BME280;69467;59.842;17.604;2023-12-22T06:54:51;96588.59;;;-0.37;100.00
80139;BME280;69467;59.842;17.604;2023-12-22T06:57:17;96585.13;;;-0.38;100.00
80139;BME280;69467;59.842;17.604;2023-12-22T06:59:42;96583.81;;;-0.40;100.00
80139;BME280;69467;59.842;17.604;2023-12-22T07:02:08;96603.16;;;-0.38;100.00
80139;BME280;69467;59.842;17.604;2023-12-22T07:04:33;96597.47;;;-0.37;100.00
80139;BME280;69467;59.842;17.604;2023-12-22T07:06:59;96608.53;;;-0.38;100.00
80139;BME280;69467;59.842;17.604;2023-12-22T07:11:49;96616.59;;;-0.38;100.00
80139;BME280;69467;59.842;17.604;2023-12-22T07:14:16;96620.84;;;-0.37;100.00
80139;BME280;69467;59.842;17.604;2023-12-22T07:16:41;96618.97;;;-0.37;100.00
80139;BME280;69467;59.842;17.604;2023-12-22T07:19:09;96628.66;;;-0.36;100.00
80139;BME280;69467;59.842;17.604;2023-12-22T07:21:38;96627.84;;;-0.36;100.00
80139;BME280;69467;59.842;17.604;2023-12-22T07:24:04;96634.81;;;-0.35;100.00
80139;BME280;69467;59.842;17.604;2023-12-22T07:26:29;96634.03;;;-0.36;100.00
80139;BME280;69467;59.842;17.604;2023-12-22T07:28:55;96643.97;;;-0.36;100.00
80139;BME280;69467;59.842;17.604;2023-12-22T07:31:20;96643.66;;;-0.35;100.00
80139;BME280;69467;59.842;17.604;2023-12-22T07:33:46;96649.84;;;-0.34;100.00
80139;BME280;69467;59.842;17.604;2023-12-22T07:36:11;96650.94;;;-0.35;100.00
80139;BME280;69467;59.842;17.604;2023-12-22T07:38:37;96654.16;;;-0.33;100.00
80139;BME280;69467;59.842;17.604;2023-12-22T07:41:04;96664.09;;;-0.34;100.00
80139;BME280;69467;59.842;17.604;2023-12-22T07:43:29;96664.91;;;-0.33;100.00
80139;BME280;69467;59.842;17.604;2023-12-22T07:45:55;96673.75;;;-0.33;100.00
80139;BME280;69467;59.842;17.604;2023-12-22T07:48:20;96671.88;;;-0.32;100.00
80139;BME280;69467;59.842;17.604;2023-12-22T07:50:46;96682.63;;;-0.32;100.00
80139;BME280;69467;59.842;17.604;2023-12-22T07:53:35;96675.66;;;-0.33;100.00
80139;BME280;69467;59.842;17.604;2023-12-22T07:56:00;96675.13;;;-0.35;100.00
80139;BME280;69467;59.842;17.604;2023-12-22T07:58:26;96686.09;;;-0.31;100.00
80139;BME280;69467;59.842;17.604;2023-12-22T08:00:51;96686.09;;;-0.31;100.00
80139;BME280;69467;59.842;17.604;2023-12-22T08:03:16;96684.22;;;-0.31;100.00
80139;BME280;69467;59.842;17.604;2023-12-22T08:05:41;96688.78;;;-0.31;100.00
80139;BME280;69467;59.842;17.604;2023-12-22T08:08:07;96686.09;;;-0.31;100.00
80139;BME280;69467;59.842;17.604;2023-12-22T08:10:32;96693.09;;;-0.30;100.00
80139;BME280;69467;59.842;17.604;2023-12-22T08:12:58;96698.75;;;-0.32;100.00
80139;BME280;69467;59.842;17.604;2023-12-22T08:15:23;96693.38;;;-0.32;100.00
80139;BME280;69467;59.842;17.604;2023-12-22T08:17:49;96698.75;;;-0.32;100.00
80139;BME280;69467;59.842;17.604;2023-12-22T08:20:21;96703.31;;;-0.33;100.00
80139;BME280;69467;59.842;17.604;2023-12-22T08:22:49;96705.72;;;-0.31;100.00
80139;BME280;69467;59.842;17.604;2023-12-22T08:25:16;96700.34;;;-0.31;100.00
80139;BME280;69467;59.842;17.604;2023-12-22T08:27:45;96703.03;;;-0.31;100.00
80139;BME280;69467;59.842;17.604;2023-12-22T08:30:10;96704.63;;;-0.30;100.00
80139;BME280;69467;59.842;17.604;2023-12-22T08:32:36;96698.16;;;-0.29;100.00
80139;BME280;69467;59.842;17.604;2023-12-22T08:35:01;96700.34;;;-0.31;100.00
80139;BME280;69467;59.842;17.604;2023-12-22T08:37:27;96708.91;;;-0.29;100.00
80139;BME280;69467;59.842;17.604;2023-12-22T08:39:52;96702.47;;;-0.28;100.00
80139;BME280;69467;59.842;17.604;2023-12-22T08:42:18;96706.22;;;-0.29;100.00
80139;BME280;69467;59.842;17.604;2023-12-22T08:44:43;96707.03;;;-0.28;100.00
80139;BME280;69467;59.842;17.604;2023-12-22T08:47:08;96715.13;;;-0.28;100.00
80139;BME280;69467;59.842;17.604;2023-12-22T08:49:34;96713.50;;;-0.29;100.00
80139;BME280;69467;59.842;17.604;2023-12-22T08:51:59;96721.28;;;-0.28;100.00
80139;BME280;69467;59.842;17.604;2023-12-22T08:54:24;96725.06;;;-0.29;100.00
80139;BME280;69467;59.842;17.604;2023-12-22T08:56:51;96727.44;;;-0.27;100.00
80139;BME280;69467;59.842;17.604;2023-12-22T08:59:18;96730.13;;;-0.27;100.00
80139;BME280;69467;59.842;17.604;2023-12-22T09:01:43;96734.41;;;-0.26;100.00
80139;BME280;69467;59.842;17.604;2023-12-22T09:04:09;96733.63;;;-0.27;100.00
80139;BME280;69467;59.842;17.604;2023-12-22T09:06:35;96748.38;;;-0.24;100.00
80139;BME280;69467;59.842;17.604;2023-12-22T09:09:00;96745.69;;;-0.24;100.00
80139;BME280;69467;59.842;17.604;2023-12-22T09:11:25;96735.25;;;-0.26;100.00
80139;BME280;69467;59.842;17.604;2023-12-22T09:13:51;96746.47;;;-0.24;100.00
80139;BME280;69467;59.842;17.604;2023-12-22T09:16:23;96749.19;;;-0.24;100.00
80139;BME280;69467;59.842;17.604;2023-12-22T09:18:50;96736.81;;;-0.25;100.00
80139;BME280;69467;59.842;17.604;2023-12-22T09:21:16;96743.53;;;-0.22;100.00
80139;BME280;69467;59.842;17.604;2023-12-22T09:23:46;96744.63;;;-0.23;100.00
80139;BME280;69467;59.842;17.604;2023-12-22T09:26:14;96735.72;;;-0.24;100.00
80139;BME280;69467;59.842;17.604;2023-12-22T09:28:41;96737.84;;;-0.21;100.00
80139;BME280;69467;59.842;17.604;2023-12-22T09:31:07;96744.84;;;-0.20;100.00
80139;BME280;69467;59.842;17.604;2023-12-22T09:33:32;96749.41;;;-0.20;100.00
80139;BME280;69467;59.842;17.604;2023-12-22T09:35:58;96741.84;;;-0.18;100.00
80139;BME280;69467;59.842;17.604;2023-12-22T09:38:23;96743.72;;;-0.19;100.00
80139;BME280;69467;59.842;17.604;2023-12-22T09:40:50;96746.94;;;-0.17;100.00
80139;BME280;69467;59.842;17.604;2023-12-22T09:43:16;96748.00;;;-0.18;100.00
80139;BME280;69467;59.842;17.604;2023-12-22T09:45:44;96742.63;;;-0.18;100.00
80139;BME280;69467;59.842;17.604;2023-12-22T09:48:10;96751.53;;;-0.17;100.00
80139;BME280;69467;59.842;17.604;2023-12-22T09:50:42;96752.31;;;-0.17;100.00
80139;BME280;69467;59.842;17.604;2023-12-22T09:53:09;96742.63;;;-0.18;100.00
80139;BME280;69467;59.842;17.604;2023-12-22T09:55:37;96760.38;;;-0.17;100.00
80139;BME280;69467;59.842;17.604;2023-12-22T09:58:04;96752.00;;;-0.15;100.00
80139;BME280;69467;59.842;17.604;2023-12-22T10:00:31;96757.38;;;-0.15;100.00
80139;BME280;69467;59.842;17.604;2023-12-22T10:02:57;96755.81;;;-0.16;100.00
80139;BME280;69467;59.842;17.604;2023-12-22T10:05:22;96761.19;;;-0.16;100.00
80139;BME280;69467;59.842;17.604;2023-12-22T10:07:48;96763.06;;;-0.17;100.00
80139;BME280;69467;59.842;17.604;2023-12-22T10:10:14;96765.75;;;-0.17;100.00
80139;BME280;69467;59.842;17.604;2023-12-22T10:12:41;96763.06;;;-0.17;100.00
80139;BME280;69467;59.842;17.604;2023-12-22T10:15:12;96769.25;;;-0.16;100.00
80139;BME280;69467;59.842;17.604;2023-12-22T10:17:38;96763.59;;;-0.14;100.00
80139;BME280;69467;59.842;17.604;2023-12-22T10:20:03;96766.56;;;-0.16;100.00
80139;BME280;69467;59.842;17.604;2023-12-22T10:22:29;96753.91;;;-0.15;100.00
80139;BME280;69467;59.842;17.604;2023-12-22T10:24:54;96761.19;;;-0.16;100.00
80139;BME280;69467;59.842;17.604;2023-12-22T10:27:20;96760.91;;;-0.14;100.00
80139;BME280;69467;59.842;17.604;2023-12-22T10:29:54;96763.06;;;-0.17;100.00
80139;BME280;69467;59.842;17.604;2023-12-22T10:32:20;96763.88;;;-0.16;100.00
80139;BME280;69467;59.842;17.604;2023-12-22T10:34:47;96759.28;;;-0.15;100.00
80139;BME280;69467;59.842;17.604;2023-12-22T10:37:12;96764.97;;;-0.17;100.00
80139;BME280;69467;59.842;17.604;2023-12-22T10:39:38;96756.09;;;-0.18;100.00
80139;BME280;69467;59.842;17.604;2023-12-22T10:42:04;96747.22;;;-0.18;100.00
80139;BME280;69467;59.842;17.604;2023-12-22T10:44:30;96764.16;;;-0.18;100.00
80139;BME280;69467;59.842;17.604;2023-12-22T10:46:56;96767.91;;;-0.19;100.00
80139;BME280;69467;59.842;17.604;2023-12-22T10:49:22;96769.81;;;-0.19;100.00
80139;BME280;69467;59.842;17.604;2023-12-22T10:51:48;96775.50;;;-0.21;100.00
80139;BME280;69467;59.842;17.604;2023-12-22T10:54:13;96771.72;;;-0.20;100.00
80139;BME280;69467;59.842;17.604;2023-12-22T10:56:39;96764.75;;;-0.21;100.00
80139;BME280;69467;59.842;17.604;2023-12-22T10:59:05;96767.72;;;-0.22;100.00
80139;BME280;69467;59.842;17.604;2023-12-22T11:01:32;96771.19;;;-0.22;100.00
80139;BME280;69467;59.842;17.604;2023-12-22T11:04:05;96786.25;;;-0.21;100.00
80139;BME280;69467;59.842;17.604;2023-12-22T11:06:35;96772.81;;;-0.21;100.00
80139;BME280;69467;59.842;17.604;2023-12-22T11:09:05;96776.28;;;-0.20;100.00
80139;BME280;69467;59.842;17.604;2023-12-22T11:11:33;96768.75;;;-0.18;100.00
80139;BME280;69467;59.842;17.604;2023-12-22T11:14:00;96769.53;;;-0.18;100.00
80139;BME280;69467;59.842;17.604;2023-12-22T11:16:28;96764.16;;;-0.18;100.00
80139;BME280;69467;59.842;17.604;2023-12-22T11:18:54;96765.75;;;-0.17;100.00
80139;BME280;69467;59.842;17.604;2023-12-22T11:21:24;96757.16;;;-0.19;100.00
80139;BME280;69467;59.842;17.604;2023-12-22T11:23:51;96760.66;;;-0.18;100.00
80139;BME280;69467;59.842;17.604;2023-12-22T11:26:21;96762.28;;;-0.17;100.00
80139;BME280;69467;59.842;17.604;2023-12-22T11:28:51;96764.97;;;-0.17;100.00
80139;BME280;69467;59.842;17.604;2023-12-22T11:31:17;96757.97;;;-0.18;100.00
80139;BME280;69467;59.842;17.604;2023-12-22T11:33:45;96768.97;;;-0.14;100.00
80139;BME280;69467;59.842;17.604;2023-12-22T11:36:12;96761.75;;;-0.19;100.00
80139;BME280;69467;59.842;17.604;2023-12-22T11:38:40;96771.94;;;-0.16;100.00
80139;BME280;69467;59.842;17.604;2023-12-22T11:41:07;96773.81;;;-0.17;100.00
80139;BME280;69467;59.842;17.604;2023-12-22T11:43:37;96764.16;;;-0.18;100.00
80139;BME280;69467;59.842;17.604;2023-12-22T11:46:03;96772.22;;;-0.18;100.00
80139;BME280;69467;59.842;17.604;2023-12-22T11:48:29;96777.09;;;-0.20;100.00
80139;BME280;69467;59.842;17.604;2023-12-22T11:50:54;96768.75;;;-0.18;100.00
80139;BME280;69467;59.842;17.604;2023-12-22T11:53:21;96774.91;;;-0.18;100.00
80139;BME280;69467;59.842;17.604;2023-12-22T11:56:07;96773.81;;;-0.17;100.00
80139;BME280;69467;59.842;17.604;2023-12-22T11:58:45;96773.31;;;-0.19;100.00
80139;BME280;69467;59.842;17.604;2023-12-22T12:01:17;96766.34;;;-0.20;100.00
80139;BME280;69467;59.842;17.604;2023-12-22T12:03:55;96771.72;;;-0.20;100.00
80139;BME280;69467;59.842;17.604;2023-12-22T12:08:50;96774.97;;;-0.23;100.00
80139;BME280;69467;59.842;17.604;2023-12-22T12:11:16;96774.69;;;-0.21;100.00
80139;BME280;69467;59.842;17.604;2023-12-22T12:13:43;96777.66;;;-0.23;100.00
80139;BME280;69467;59.842;17.604;2023-12-22T12:16:14;96772.28;;;-0.23;100.00
80139;BME280;69467;59.842;17.604;2023-12-22T12:18:40;96780.88;;;-0.21;100.00
80139;BME280;69467;59.842;17.604;2023-12-22T12:21:10;96784.66;;;-0.22;100.00
80139;BME280;69467;59.842;17.604;2023-12-22T12:23:36;96790.03;;;-0.22;100.00
80139;BME280;69467;59.842;17.604;2023-12-22T12:26:01;96793.81;;;-0.23;100.00
80139;BME280;69467;59.842;17.604;2023-12-22T12:28:30;96793.00;;;-0.23;100.00
80139;BME280;69467;59.842;17.604;2023-12-22T12:31:01;96798.38;;;-0.23;100.00
80139;BME280;69467;59.842;17.604;2023-12-22T12:33:28;96799.19;;;-0.23;100.00
80139;BME280;69467;59.842;17.604;2023-12-22T12:35:55;96793.56;;;-0.26;100.00
80139;BME280;69467;59.842;17.604;2023-12-22T12:38:23;96792.78;;;-0.27;100.00
80139;BME280;69467;59.842;17.604;2023-12-22T12:40:54;96798.16;;;-0.27;100.00
80139;BME280;69467;59.842;17.604;2023-12-22T12:43:22;96803.53;;;-0.27;100.00